Ava, MO (65608)

7:24 AM CDT on May 27, 2017 (GMT -0500)
Spring Creek twp | | Change Station

Elev 1220 ft 36.89 °N, 92.67 °W | Updated 38 seconds ago

Mostly Cloudy
Mostly Cloudy
69.3 °F
Feels Like 69.3 °F
N
0.0
Wind Variable Wind from East

Today
High -- | Low -- °F
--% Chance of Precip.
Yesterday
High -- | Low -- °F
Precip. -- in
Pressure 29.84 in
Visibility 10.0 miles
Clouds Scattered Clouds 4800 ft
Mostly Cloudy 6000 ft
Dew Point 67 °F
Humidity 93%
Rainfall 0.02 in
Snow Depth Not available.
5:54 AM 8:21 PM
Waxing Crescent, 4% visible
METAR KBPK 271153Z AUTO 12005KT 10SM SCT048 BKN060 18/17 A2986 RMK AO2 SLP104 60104 70104 T01830172 10228 20167 53007 TSNO
Pressure 29.84 in
Visibility 10.0 miles
Clouds Scattered Clouds 4800 ft
Mostly Cloudy 6000 ft
Dew Point 67 °F
Humidity 93%
Rainfall 0.02 in
Snow Depth Not available.
5:54 AM 8:21 PM
Waxing Crescent, 4% visible
METAR KBPK 271153Z AUTO 12005KT 10SM SCT048 BKN060 18/17 A2986 RMK AO2 SLP104 60104 70104 T01830172 10228 20167 53007 TSNO

Get Severe Weather Alerts

Thanks for signing up!

Be on the lookout for a verification email in your inbox.

You'll start receiving the daily forecast at 6 AM.

×

10-Day Weather Forecast

Almanac

Astronomy

May. 27, 2017 Rise Set
Actual Time
Civil Twilight
Nautical Twilight
Astronomical Twilight
Moon
Length of Visible Light
Length of Day
Tomorrow will be .
, % of the Moon is Illuminated

Today's Extremes

State Highs State Lows

Community

WunderPhotos

Category 6

Welcome to Category 6. This is the collective home for Weather Underground's featured writeups by Dr. Jeff Masters (right), Bob Henson (left), Chris Burt, and other regular contributors.

Nearby

Air Quality

  Air Quality AQ Index Pollutant
Not available.

Snow Depth

Station Depth Elevation

Earthquake Activity

City Distance Mag. Time & Date
Minimum magnitude displayed is 2.5.

Coastal Water Temperatures

Place Temperature

Stations

Nearby Weather Stations

Station Location Temp. Windchill Dew Point Humidity Wind Precip. Elev Updated Type
                   

Watches & Warnings

There are currently no watches in effect.